Station: Jervois  

  Atmospheric Gas Attenuation - ITU Rec 676-11   ----------------- dB/100km -----------------
Date Time Temp RH % AH g/m3 Dew Point Wind Direction Speed kph Gust kph Barometer mB Rainfall Since 9am 24GHz 47GHz 76GHz 122GHz 134GHz 241GHz
06/09 23:40 18.2 49 7.62 7.3 7 13 1019.6 0 17.3 23.4 34.3 89.7 81.5 279.7
06/09 23:30 18.5 49 7.75 7.6 7 11 1019.6 0 17.6 23.5 34.6 90.6 82.7 284.2
06/09 23:20 18.7 48 7.68 7.5 7 11 1019.8 0 17.4 23.4 34.3 89.7 81.7 280.6
06/09 23:10 18.9 47 7.61 7.4 7 11 1019.9 0 17.3 23.2 34.0 88.9 80.7 277.0
06/09 23:00 19.3 47 7.8 7.7 9 11 1019.9 0 17.6 23.4 34.5 90.3 82.5 283.5
06/09 22:50 19.6 46 7.76 7.7 9 13 1020 0 17.5 23.3 34.2 89.5 81.8 280.8
06/09 22:40 19.7 47 7.98 8.1 9 15 1020 0 18.0 23.6 35.0 91.6 84.3 289.7
06/09 22:30 19.9 46 7.9 7.9 9 15 1019.8 0 17.8 23.4 34.6 90.5 83.1 285.6
06/09 22:20 20.1 45 7.82 7.8 9 13 1019.8 0 17.6 23.2 34.2 89.5 81.9 281.5
06/09 22:10 20.4 45 7.96 8.1 9 13 1019.7 0 17.9 23.3 34.6 90.6 83.3 286.3
06/09 22:00 20.7 44 7.92 8 11 13 1019.6 0 17.8 23.2 34.3 89.8 82.5 283.6
06/09 21:50 20.9 43 7.83 7.9 11 13 1019.6 0 17.6 23.0 33.9 88.7 81.2 279.1
06/09 21:40 21.1 43 7.92 8 11 13 1019.6 0 17.8 23.1 34.2 89.4 82.1 282.2
06/09 21:30 21.3 42 7.83 7.9 11 15 1019.4 0 17.6 22.9 33.7 88.3 80.8 277.7
06/09 21:20 21.6 41 7.78 7.8 11 17 1019.4 0 17.5 22.8 33.4 87.5 79.9 274.7
06/09 21:10 21.7 41 7.82 7.9 11 15 1019.4 0 17.6 22.8 33.5 87.8 80.3 276.0
06/09 21:00 22 40 7.76 7.8 11 15 1019.2 0 17.4 22.6 33.2 86.9 79.3 272.5
06/09 20:50 22.2 39 7.66 7.6 11 15 1019.2 0 17.2 22.5 32.8 85.7 77.9 267.8
06/09 20:40 22.5 39 7.79 7.9 11 17 1019.1 0 17.5 22.6 33.1 86.6 79.1 272.0
06/09 20:30 22.6 38 7.63 7.6 11 17 1018.9 0 17.1 22.3 32.5 85.0 77.2 265.2
06/09 20:20 22.6 38 7.63 7.6 13 17 1018.9 0 17.1 22.3 32.5 85.0 77.2 265.2
06/09 20:10 22.6 39 7.83 8 11 17 1018.6 0 17.6 22.6 33.2 86.8 79.5 273.2
06/09 20:00 22.4 39 7.74 7.8 9 13 1018.4 0 17.4 22.5 32.9 86.2 78.6 270.2
06/09 19:50 22.8 38 7.72 7.8 7 11 1018.2 0 17.3 22.4 32.7 85.6 78.0 268.0
06/09 19:40 23.1 37 7.65 7.6 7 11 1018.1 0 17.2 22.2 32.3 84.6 76.9 264.2
06/09 19:30 23.4 36 7.57 7.5 7 9 1017.8 0 17.0 22.0 31.9 83.5 75.7 260.0
06/09 19:20 23.9 35 7.57 7.5 7 11 1017.8 0 17.0 21.9 31.8 83.0 75.2 258.5
06/09 19:10 24.2 34 7.48 7.4 7 11 1017.7 0 16.8 21.7 31.3 81.9 73.9 254.0
06/09 19:00 24.7 33 7.47 7.4 9 11 1017.3 0 16.7 21.5 31.1 81.3 73.4 252.0
06/09 18:50 25.2 32 7.45 7.3 9 11 1017.2 0 16.7 21.4 30.8 80.6 72.7 249.7
06/09 18:40 25.8 31 7.46 7.4 9 11 1017 0 16.7 21.3 30.6 80.1 72.3 248.2
06/09 18:30 26.3 30 7.43 7.4 9 13 1016.7 0 16.6 21.1 30.4 79.3 71.5 245.5
06/09 18:20 27 29 7.46 7.5 11 15 1016.7 0 16.6 21.0 30.2 78.9 71.2 244.6
06/09 18:10 27.4 28 7.37 7.3 11 15 1016.6 0 16.4 20.8 29.8 77.8 69.9 240.1
06/09 18:00 27.9 27 7.3 7.2 11 17 1016.4 0 16.2 20.6 29.4 76.7 68.7 236.0
06/09 17:50 28.6 26 7.31 7.2 13 19 1016.5 0 16.2 20.4 29.1 76.2 68.2 234.4
06/09 17:40 29.1 25 7.22 7.1 13 22 1016.3 0 16.0 20.2 28.7 74.9 66.9 229.7
06/09 17:30 29.4 24 7.05 6.7 17 26 1016.1 0 15.7 19.9 28.1 73.3 64.9 222.8
06/09 17:20 29.6 24 7.12 6.9 17 24 1016.1 0 15.8 20.0 28.2 73.7 65.5 224.8
06/09 17:10 29.7 24 7.16 7 15 20 1016.1 0 15.9 20.0 28.3 73.9 65.8 225.9
06/09 17:00 29.7 24 7.16 7 17 22 1015.9 0 15.9 20.0 28.3 73.9 65.8 225.9
06/09 16:50 29.9 23 6.94 6.5 17 24 1015.8 0 15.4 19.7 27.5 71.9 63.4 217.5
06/09 16:40 30.1 24 7.32 7.3 15 22 1015.6 0 16.2 20.1 28.6 74.8 67.1 230.5
06/09 16:30 30.2 23 7.05 6.8 15 22 1015.7 0 15.6 19.7 27.8 72.5 64.3 220.6
06/09 16:20 30.4 24 7.44 7.6 15 26 1015.7 0 16.4 20.2 28.9 75.6 68.0 233.9
06/09 16:10 30.3 24 7.4 7.5 17 24 1015.7 0 16.4 20.2 28.8 75.3 67.7 232.8
06/09 16:00 30.4 24 7.44 7.6 15 24 1015.7 0 16.4 20.2 28.9 75.6 68.0 233.9
06/09 15:50 30.4 24 7.44 7.6 17 26 1015.8 0 16.4 20.2 28.9 75.6 68.1 234.0
06/09 15:40 29.9 24 7.24 7.2 17 28 1015.8 0 16.0 20.0 28.5 74.4 66.4 228.2
06/09 15:30 30 24 7.28 7.2 19 30 1015.9 0 16.1 20.1 28.6 74.6 66.8 229.4
06/09 15:20 30 24 7.28 7.2 17 30 1015.9 0 16.1 20.1 28.6 74.6 66.8 229.4
06/09 15:10 29.8 25 7.5 7.7 17 24 1016.1 0 16.6 20.4 29.3 76.6 69.2 237.9
06/09 15:00 30.1 24 7.32 7.3 17 26 1016.1 0 16.2 20.1 28.6 74.9 67.1 230.6
06/09 14:50 30.2 24 7.36 7.4 17 26 1016.3 0 16.3 20.2 28.7 75.1 67.4 231.8
06/09 14:40 29.9 24 7.24 7.2 19 28 1016.5 0 16.0 20.1 28.5 74.4 66.5 228.3
06/09 14:30 29.6 24 7.12 6.9 20 30 1016.6 0 15.8 20.0 28.2 73.7 65.5 224.9
06/09 14:20 30.3 24 7.4 7.5 11 19 1016.7 0 16.4 20.2 28.8 75.4 67.8 233.0
06/09 14:10 29.8 25 7.5 7.7 19 30 1016.8 0 16.6 20.4 29.3 76.7 69.2 238.0
06/09 14:00 30.4 25 7.75 8.2 19 30 1016.9 0 17.1 20.6 29.9 78.2 71.3 245.3
06/09 13:50 30.2 25 7.67 8 17 30 1017.1 0 16.9 20.6 29.7 77.8 70.7 243.1
06/09 13:40 29.5 25 7.38 7.4 17 28 1017.3 0 16.3 20.4 29.1 76.0 68.3 234.6
06/09 13:30 29.5 25 7.38 7.4 19 32 1017.4 0 16.3 20.4 29.1 76.0 68.3 234.6
06/09 13:20 28.9 26 7.43 7.5 17 28 1017.7 0 16.5 20.6 29.5 77.0 69.3 238.2
06/09 13:10 29.1 26 7.51 7.7 19 30 1017.9 0 16.6 20.6 29.6 77.5 70.0 240.6
06/09 13:00 28.7 26 7.35 7.3 15 30 1018 0 16.3 20.5 29.3 76.5 68.7 235.9
06/09 12:50 28.4 27 7.51 7.6 15 26 1018.2 0 16.7 20.8 29.9 78.2 70.6 242.7
06/09 12:40 28.5 26 7.27 7.1 15 26 1018.4 0 16.2 20.5 29.1 76.1 68.0 233.6
06/09 12:30 28.3 27 7.47 7.5 15 24 1018.5 0 16.6 20.8 29.8 78.0 70.3 241.5
06/09 12:20 28 27 7.34 7.3 17 24 1018.6 0 16.3 20.7 29.5 77.1 69.2 237.6
06/09 12:10 27.6 28 7.45 7.5 19 24 1019 0 16.6 20.9 30.0 78.5 70.7 242.9
06/09 12:00 27 29 7.46 7.5 19 28 1019.2 0 16.6 21.1 30.3 79.1 71.3 245.1
06/09 11:50 27.1 29 7.51 7.5 19 28 1019.4 0 16.7 21.1 30.4 79.5 71.8 246.7
06/09 11:40 26.9 28 7.17 6.9 20 30 1019.7 0 16.0 20.7 29.4 76.8 68.4 234.7
06/09 11:30 26.4 29 7.22 6.9 17 30 1019.8 0 16.1 20.9 29.7 77.7 69.3 238.0
06/09 11:20 25.9 30 7.26 7 19 28 1020 0 16.2 21.1 30.1 78.5 70.2 241.0
06/09 11:10 26.3 29 7.18 6.9 19 28 1020 0 16.1 20.9 29.7 77.5 69.0 236.8
06/09 11:00 25.8 30 7.22 6.9 17 26 1020.2 0 16.2 21.0 30.0 78.3 69.9 239.8
06/09 10:50 25.2 30 6.98 6.4 17 28 1020.4 0 15.7 20.9 29.4 76.8 67.8 232.5
06/09 10:40 25.2 32 7.45 7.3 19 32 1020.5 0 16.7 21.5 31.0 80.9 72.9 250.4
06/09 10:30 25.1 32 7.41 7.3 17 26 1020.6 0 16.6 21.5 30.9 80.7 72.6 249.2
06/09 10:20 24.4 32 7.12 6.6 17 28 1020.8 0 16.0 21.2 30.2 78.8 70.0 240.2
06/09 10:10 24.1 33 7.22 6.8 17 22 1020.8 0 16.2 21.5 30.6 80.0 71.4 244.9
06/09 10:00 23.7 33 7.06 6.5 20 30 1020.9 0 15.9 21.3 30.2 78.9 70.0 239.9
06/09 09:50 22.9 34 6.95 6.2 20 28 1021 0 15.7 21.4 30.2 78.7 69.4 238.0
06/09 09:40 22.9 34 6.95 6.2 20 32 1021 0 15.7 21.4 30.2 78.7 69.4 238.0
06/09 09:30 22.7 36 7.27 6.9 17 26 1021.1 0 16.4 21.9 31.3 81.8 73.2 251.1
06/09 09:20 22.2 35 6.87 6 17 28 1021.1 0 15.6 21.4 30.1 78.7 69.2 236.9
06/09 09:10 22 36 6.99 6.3 17 26 1021.1 0 15.8 21.6 30.6 79.9 70.7 242.2
06/09 09:00 21.4 37 6.94 6.1 19 28 1021.1 0 15.7 21.7 30.7 80.1 70.6 242.0
06/09 08:50 21.3 39 7.27 6.8 19 30 1020.9 0 16.4 22.2 31.8 83.2 74.4 255.4
06/09 08:40 20.7 40 7.2 6.6 19 26 1020.9 0 16.3 22.2 31.8 83.2 74.2 254.4
06/09 08:30 20.7 42 7.56 7.3 17 28 1020.9 0 17.1 22.7 33.1 86.5 78.4 269.1
06/09 08:20 20.2 43 7.52 7.2 15 28 1020.8 0 17.0 22.8 33.1 86.7 78.4 269.1
06/09 08:10 19.8 45 7.69 7.5 13 17 1020.8 0 17.4 23.1 33.9 88.7 80.8 277.4
06/09 08:00 19.3 48 7.96 8 11 15 1020.4 0 18.0 23.7 35.1 91.9 84.5 290.4
06/09 07:50 18.6 50 7.96 8 11 19 1020.1 0 18.0 23.8 35.4 92.6 85.2 292.8
06/09 07:40 18 53 8.14 8.3 7 11 1019.9 0 18.4 24.2 36.3 95.1 88.1 302.7
06/09 07:30 17.5 56 8.35 8.6 7 9 1019.6 0 18.9 24.7 37.3 97.8 91.2 313.7
06/09 07:20 16.8 59 8.43 8.8 7 11 1019.6 0 19.1 25.0 37.9 99.5 93.0 320.0
06/09 07:10 15.5 63 8.33 8.5 2 9 1019.6 0 18.9 25.2 38.2 100.1 93.3 320.8

Last Refresh: 06-Sep-2026 23:46:56

Bureau of Meteorology